createdAt,value
2023-03-12T00:01:25.176Z,1564.9
2023-03-12T00:03:08.855Z,1563.7
2023-03-12T00:04:52.606Z,1564.1
2023-03-12T00:06:36.276Z,1560.4
2023-03-12T00:08:19.974Z,1559.2
2023-03-12T00:10:03.687Z,1558.6
2023-03-12T00:11:47.380Z,1566.5
2023-03-12T00:13:31.074Z,1558.4
2023-03-12T00:15:14.780Z,1552.8
2023-03-12T00:16:58.487Z,1550.9
2023-03-12T00:18:42.179Z,1550.9
2023-03-12T00:20:25.889Z,1551.3
2023-03-12T00:22:09.633Z,1547.1
2023-03-12T00:23:53.337Z,1543.9
2023-03-12T00:25:36.987Z,1541.7
2023-03-12T00:27:20.692Z,1541.3
2023-03-12T00:29:04.394Z,1543.2
2023-03-12T00:30:48.111Z,1539.4
2023-03-12T00:32:31.854Z,1544.3
2023-03-12T00:34:15.503Z,1540.8
2023-03-12T00:35:59.203Z,1538.7
2023-03-12T00:37:42.923Z,1542.8
2023-03-12T00:39:26.602Z,1537
2023-03-12T00:41:10.307Z,1534
2023-03-12T00:42:54.109Z,1532.4
2023-03-12T00:44:37.823Z,1531.5
2023-03-12T00:46:21.414Z,1526.4
2023-03-12T00:48:05.139Z,1525.2
2023-03-12T00:49:48.824Z,1527.8
2023-03-12T00:51:32.587Z,1531.9
2023-03-12T00:53:16.220Z,1531.9
2023-03-12T00:54:59.945Z,1529.4
2023-03-12T00:56:43.634Z,1528.9
2023-03-12T00:58:27.332Z,1528.1
2023-03-12T01:00:11.074Z,1527.9
2023-03-12T01:01:54.742Z,1527.7
2023-03-12T01:03:38.429Z,1515.8
2023-03-12T01:05:22.146Z,1513.1
2023-03-12T01:07:05.869Z,1516.4
2023-03-12T01:08:49.550Z,1517
2023-03-12T01:10:33.257Z,1519.7
2023-03-12T01:12:16.962Z,1517.7
2023-03-12T01:14:00.662Z,1514.1
2023-03-12T01:15:44.493Z,1515.3
2023-03-12T01:17:28.103Z,1515.5
2023-03-12T01:19:11.763Z,1516.5
2023-03-12T01:20:55.461Z,1515.7
2023-03-12T01:22:39.165Z,1514.2
2023-03-12T01:24:22.877Z,1513.2
2023-03-12T01:26:06.573Z,1512.7
2023-03-12T01:27:50.272Z,1516
2023-03-12T01:29:33.987Z,1512.3
2023-03-12T01:31:17.683Z,1506
2023-03-12T01:33:01.393Z,1501.9
2023-03-12T01:34:45.085Z,1499.4
2023-03-12T01:36:28.784Z,1493.9
2023-03-12T01:38:12.546Z,1498.5
2023-03-12T01:39:56.199Z,1498.4
2023-03-12T01:41:39.890Z,1495.4
2023-03-12T01:43:23.606Z,1491.8
2023-03-12T01:45:07.303Z,1489.1
2023-03-12T01:46:51.037Z,1486.1
2023-03-12T01:48:34.695Z,1480.7
2023-03-12T01:50:18.405Z,1476.8
2023-03-12T01:52:02.104Z,1474.9
2023-03-12T01:53:45.833Z,1469.9
2023-03-12T01:55:29.502Z,1469.2
2023-03-12T01:57:13.214Z,1465.4
2023-03-12T01:58:56.913Z,1466
2023-03-12T02:00:40.704Z,1462.5
2023-03-12T02:02:24.313Z,1467.3
2023-03-12T02:04:08.040Z,1463.7
2023-03-12T02:05:51.722Z,1466.5
2023-03-12T02:07:35.420Z,1464.4
2023-03-12T02:09:19.123Z,1464.5
2023-03-12T02:11:02.834Z,1465
2023-03-12T02:12:46.526Z,1464.8
2023-03-12T02:14:30.228Z,1467.1
2023-03-12T02:16:13.929Z,1470.7
2023-03-12T02:17:57.641Z,1472.2
2023-03-12T02:19:41.351Z,1467.6
2023-03-12T02:21:25.036Z,1467.4
2023-03-12T02:23:08.739Z,1467.8
2023-03-12T02:24:52.452Z,1469.1
2023-03-12T02:26:36.157Z,1469.7
2023-03-12T02:28:19.848Z,1474.1
2023-03-12T02:30:03.563Z,1472.1
2023-03-12T02:31:47.257Z,1467.3
2023-03-12T02:33:30.965Z,1466.8
2023-03-12T02:35:14.686Z,1465
2023-03-12T02:36:58.378Z,1458.1
2023-03-12T02:38:42.099Z,1459.6
2023-03-12T02:40:25.785Z,1460
2023-03-12T02:42:09.473Z,1459.4
2023-03-12T02:43:53.177Z,1466.3
2023-03-12T02:45:36.893Z,1461.9
2023-03-12T02:47:20.589Z,1453.6
2023-03-12T02:49:04.349Z,1450.6
2023-03-12T02:50:47.987Z,1454.2
2023-03-12T02:52:31.720Z,1455.3
2023-03-12T02:54:15.392Z,1453.2
2023-03-12T02:55:59.118Z,1451.1
2023-03-12T02:57:42.817Z,1451.6
2023-03-12T02:59:26.499Z,1455.2
2023-03-12T03:01:10.206Z,1451.5
2023-03-12T03:02:53.911Z,1451.3
2023-03-12T03:04:37.610Z,1449
2023-03-12T03:06:21.313Z,1444.8
2023-03-12T03:08:05.007Z,1442.3
2023-03-12T03:09:48.717Z,1443.5
2023-03-12T03:11:32.420Z,1441.8
2023-03-12T03:13:16.120Z,1445.1
2023-03-12T03:14:59.832Z,1446.9
2023-03-12T03:16:43.522Z,1447.1
2023-03-12T03:18:27.224Z,1443.7
2023-03-12T03:20:10.943Z,1442.1
2023-03-12T03:21:54.655Z,1441
2023-03-12T03:23:38.335Z,1441.7
2023-03-12T03:25:22.058Z,1442.5
2023-03-12T03:27:05.744Z,1440.2
2023-03-12T03:28:49.452Z,1443.9
2023-03-12T03:30:33.146Z,1446
2023-03-12T03:32:16.906Z,1445.7
2023-03-12T03:34:00.576Z,1448.3
2023-03-12T03:35:44.247Z,1451.3
2023-03-12T03:37:27.949Z,1448.7
2023-03-12T03:39:11.698Z,1447.4
2023-03-12T03:40:55.356Z,1448.2
2023-03-12T03:42:39.085Z,1445.1
2023-03-12T03:44:22.778Z,1445.1
2023-03-12T03:46:06.471Z,1447
2023-03-12T03:47:50.168Z,1446.7
2023-03-12T03:49:33.883Z,1447.9
2023-03-12T03:51:17.578Z,1444.7
2023-03-12T03:53:01.282Z,1441.2
2023-03-12T03:54:44.973Z,1436.3
2023-03-12T03:56:28.713Z,1433.8
2023-03-12T03:58:12.397Z,1435
2023-03-12T03:59:56.097Z,1439.9
2023-03-12T04:01:39.796Z,1441.6
2023-03-12T04:03:23.499Z,1435.5
2023-03-12T04:05:07.199Z,1438.8
2023-03-12T04:06:50.907Z,1437
2023-03-12T04:08:34.598Z,1437.2
2023-03-12T04:10:18.326Z,1438.7
2023-03-12T04:12:02.025Z,1443.8
2023-03-12T04:13:45.717Z,1442.4
2023-03-12T04:15:29.420Z,1442.4
2023-03-12T04:17:13.115Z,1443
2023-03-12T04:18:56.812Z,1441.4
2023-03-12T04:20:40.517Z,1438.7
2023-03-12T04:22:24.213Z,1435.9
2023-03-12T04:24:07.920Z,1438.6
2023-03-12T04:25:51.625Z,1438.4
2023-03-12T04:27:35.340Z,1443.2
2023-03-12T04:29:19.162Z,1445.6
2023-03-12T04:31:02.740Z,1447.2
2023-03-12T04:32:46.431Z,1449.7
2023-03-12T04:34:30.134Z,1448.7
2023-03-12T04:36:13.837Z,1445.3
2023-03-12T04:37:57.539Z,1442.2
2023-03-12T04:39:41.251Z,1442.9
2023-03-12T04:41:24.937Z,1442.5
2023-03-12T04:43:08.659Z,1442.9
2023-03-12T04:44:52.350Z,1448.6
2023-03-12T04:46:36.065Z,1454.9
2023-03-12T04:48:19.760Z,1456.9
2023-03-12T04:50:03.464Z,1447.8
2023-03-12T04:51:47.164Z,1446.6
2023-03-12T04:53:30.883Z,1446
2023-03-12T04:55:14.586Z,1445.7
2023-03-12T04:56:58.285Z,1441
2023-03-12T04:58:41.999Z,1439.4
2023-03-12T05:00:25.674Z,1437.1
2023-03-12T05:02:09.391Z,1438.5
2023-03-12T05:03:53.098Z,1446.6
2023-03-12T05:05:36.779Z,1447.3
2023-03-12T05:07:20.494Z,1448.6
2023-03-12T05:10:47.897Z,1439.7
2023-03-12T05:12:31.600Z,1443.5
2023-03-12T05:14:15.308Z,1446.8
2023-03-12T05:15:59.019Z,1451.4
2023-03-12T05:17:42.729Z,1449.6
2023-03-12T05:19:26.409Z,1449.9
2023-03-12T05:21:10.115Z,1452
2023-03-12T05:22:53.807Z,1453.1
2023-03-12T05:24:37.518Z,1446.2
2023-03-12T05:26:21.219Z,1445.7
2023-03-12T05:28:04.925Z,1446.7
2023-03-12T05:29:48.686Z,1450.6
2023-03-12T05:31:32.334Z,1455.8
2023-03-12T05:33:16.037Z,1456.7
2023-03-12T05:34:59.750Z,1455.1
2023-03-12T05:36:43.448Z,1455.9
2023-03-12T05:38:27.134Z,1455
2023-03-12T05:40:10.846Z,1457.4
2023-03-12T05:41:54.542Z,1457.3
2023-03-12T05:43:38.246Z,1453.5
2023-03-12T05:45:21.956Z,1457.2
2023-03-12T05:47:05.664Z,1456.6
2023-03-12T05:48:49.363Z,1456.9
2023-03-12T05:50:33.068Z,1457.8
2023-03-12T05:52:16.756Z,1458.7
2023-03-12T05:54:00.462Z,1459.4
2023-03-12T05:55:44.171Z,1458.8
2023-03-12T05:57:27.884Z,1458.2
2023-03-12T05:59:11.561Z,1455.6
2023-03-12T06:00:55.267Z,1465
2023-03-12T06:02:38.955Z,1462.4
2023-03-12T06:04:22.698Z,1459.7
2023-03-12T06:06:06.369Z,1461.6
2023-03-12T06:07:50.096Z,1457.9
2023-03-12T06:09:33.776Z,1457.7
2023-03-12T06:11:17.476Z,1457.7
2023-03-12T06:13:01.173Z,1459.3
2023-03-12T06:14:44.892Z,1459
2023-03-12T06:16:28.587Z,1460
2023-03-12T06:18:12.303Z,1455.1
2023-03-12T06:19:55.975Z,1451.6
2023-03-12T06:21:39.683Z,1454.8
2023-03-12T06:23:23.388Z,1453.7
2023-03-12T06:25:07.105Z,1456.1
2023-03-12T06:26:50.816Z,1458.4
2023-03-12T06:28:34.514Z,1462.2
2023-03-12T06:30:18.206Z,1460.2
2023-03-12T06:32:01.932Z,1457.5
2023-03-12T06:33:45.619Z,1455.5
2023-03-12T06:35:29.314Z,1460
2023-03-12T06:37:13.007Z,1461
2023-03-12T06:38:56.707Z,1454.6
2023-03-12T06:40:40.398Z,1454.9
2023-03-12T06:42:24.107Z,1457.6
2023-03-12T06:44:07.822Z,1453.4
2023-03-12T06:45:51.510Z,1452.7
2023-03-12T06:47:35.203Z,1456.2
2023-03-12T06:49:18.919Z,1457.9
2023-03-12T06:51:02.639Z,1457.8
2023-03-12T06:52:46.320Z,1457.9
2023-03-12T06:54:30.088Z,1459.4
2023-03-12T06:56:13.727Z,1461.3
2023-03-12T06:57:57.444Z,1465.6
2023-03-12T06:59:41.126Z,1463.4
2023-03-12T07:01:24.844Z,1461.2
2023-03-12T07:03:08.589Z,1461.4
2023-03-12T07:04:52.238Z,1462.5
2023-03-12T07:06:35.945Z,1462.2
2023-03-12T07:08:19.657Z,1464.8
2023-03-12T07:10:03.345Z,1467.3
2023-03-12T07:11:47.055Z,1471.1
2023-03-12T07:13:30.748Z,1465.5
2023-03-12T07:15:14.495Z,1462.5
2023-03-12T07:16:58.176Z,1466.7
2023-03-12T07:18:41.882Z,1466.3
2023-03-12T07:20:25.561Z,1464.7
2023-03-12T07:22:09.262Z,1467
2023-03-12T07:23:52.976Z,1534.9
2023-03-12T07:25:36.676Z,1544.5
2023-03-12T07:27:20.373Z,1527.7
2023-03-12T07:29:04.122Z,1518
2023-03-12T07:30:47.845Z,1507
2023-03-12T07:32:31.636Z,1504.1
2023-03-12T07:34:15.176Z,1504
2023-03-12T07:35:59.076Z,1503.3
2023-03-12T07:37:42.820Z,1506.5
2023-03-12T07:39:26.473Z,1509.6
2023-03-12T07:41:10.001Z,1510.3
2023-03-12T07:42:53.827Z,1507.3
2023-03-12T07:44:37.447Z,1508.2
2023-03-12T07:46:21.164Z,1512.2
2023-03-12T07:48:04.814Z,1511.5
2023-03-12T07:49:48.597Z,1515.7
2023-03-12T07:51:32.206Z,1532
2023-03-12T07:53:16.044Z,1539.8
2023-03-12T07:54:59.741Z,1542.3
2023-03-12T07:56:43.481Z,1543.1
2023-03-12T07:58:27.244Z,1546.4
2023-03-12T08:00:10.867Z,1548.9
2023-03-12T08:01:54.654Z,1548.1
2023-03-12T08:03:38.250Z,1547.5
2023-03-12T08:05:21.995Z,1553.1
2023-03-12T08:07:05.540Z,1560
2023-03-12T08:08:49.266Z,1580.3
2023-03-12T08:10:32.983Z,1593.3
2023-03-12T08:12:16.639Z,1589.7
2023-03-12T08:14:00.355Z,1585.9
2023-03-12T08:15:44.044Z,1608.7
2023-03-12T08:17:27.739Z,1617.6
2023-03-12T08:19:11.486Z,1623.9
2023-03-12T08:20:55.165Z,1630.6
2023-03-12T08:22:38.851Z,1637.5
2023-03-12T08:24:22.561Z,1642.3
2023-03-12T08:26:06.286Z,1646.4
2023-03-12T08:27:49.959Z,1658.2
2023-03-12T08:29:33.663Z,1666.1
2023-03-12T08:31:17.363Z,1669.9
2023-03-12T08:33:01.092Z,1672.6
2023-03-12T08:34:44.827Z,1669.5
2023-03-12T08:36:28.475Z,1673
2023-03-12T08:38:12.188Z,1679.5
2023-03-12T08:39:55.907Z,1680.7
2023-03-12T08:41:39.582Z,1676.9
2023-03-12T08:43:23.327Z,1679.9
2023-03-12T08:45:06.987Z,1678
2023-03-12T08:46:50.688Z,1677.9
2023-03-12T08:48:49.841Z,2050.1
2023-03-12T08:50:48.894Z,2057.3
2023-03-12T08:52:32.624Z,1816.9
2023-03-12T08:54:16.294Z,1783.6
2023-03-12T08:56:00.061Z,1774.2
2023-03-12T08:57:43.706Z,1767.9
2023-03-12T08:59:27.472Z,1766.3
2023-03-12T09:01:11.120Z,1769.5
2023-03-12T09:02:54.811Z,1767.3
2023-03-12T09:04:38.524Z,1774
2023-03-12T09:06:22.239Z,1781.7
2023-03-12T09:08:05.997Z,1782.4
2023-03-12T09:09:49.631Z,1790.1
2023-03-12T09:11:33.350Z,1806.8
2023-03-12T09:13:17.027Z,1823.9
2023-03-12T09:15:00.741Z,1834.2
2023-03-12T09:16:44.446Z,1845.6
2023-03-12T09:18:28.156Z,1851.3
2023-03-12T09:20:11.858Z,1859.6
2023-03-12T09:21:55.536Z,1864
2023-03-12T09:23:39.239Z,1866.8
2023-03-12T09:25:22.948Z,1864.3
2023-03-12T09:27:06.658Z,1866
2023-03-12T09:28:50.345Z,1870
2023-03-12T09:30:34.050Z,1875.7
2023-03-12T09:32:17.780Z,1872.1
2023-03-12T09:34:01.472Z,1873.3
2023-03-12T09:35:45.220Z,1878.4
2023-03-12T09:37:28.903Z,1889.5
2023-03-12T09:39:12.641Z,1895.3
2023-03-12T09:40:56.275Z,1896.6
2023-03-12T09:42:39.990Z,1905.1
2023-03-12T09:44:23.662Z,1900.4
2023-03-12T09:46:07.375Z,1898.4
2023-03-12T09:47:51.081Z,1899.3
2023-03-12T09:49:34.774Z,1896.5
2023-03-12T09:51:18.476Z,1902.2
2023-03-12T09:53:02.192Z,1920.8
2023-03-12T09:54:45.880Z,1942.6
2023-03-12T09:56:29.588Z,1948.3
2023-03-12T09:58:13.284Z,1949.2
2023-03-12T09:59:56.988Z,1961.1
2023-03-12T10:01:49.239Z,1997.2
2023-03-12T10:03:41.468Z,2002.5
2023-03-12T10:05:46.529Z,2034.3
2023-03-12T10:07:51.566Z,2045.1
2023-03-12T10:09:56.724Z,2049.9
2023-03-12T10:12:01.768Z,2061.6
2023-03-12T10:14:07.528Z,2103.1
2023-03-12T10:16:13.596Z,2124.8
2023-03-12T10:18:23.428Z,2513.3
2023-03-12T10:20:33.549Z,2533.6
2023-03-12T10:22:43.687Z,2534
2023-03-12T10:24:53.806Z,2540.7
2023-03-12T10:27:03.979Z,2536.7
2023-03-12T10:29:14.068Z,2531.1
2023-03-12T10:31:24.206Z,2526
2023-03-12T10:33:34.324Z,2528.4
2023-03-12T10:35:44.507Z,2537.8
2023-03-12T10:37:54.597Z,2536.9
2023-03-12T10:40:04.718Z,2543.5
2023-03-12T10:42:14.843Z,2542.7
2023-03-12T10:44:25.006Z,2547.2
2023-03-12T10:46:35.150Z,2547.7
2023-03-12T10:48:28.882Z,1887.4
2023-03-12T10:50:12.576Z,1322.3
2023-03-12T10:51:56.278Z,1203
2023-03-12T10:53:39.995Z,1434.6
2023-03-12T10:55:23.670Z,1813.7
2023-03-12T10:57:07.389Z,1767.1
2023-03-12T10:58:51.079Z,1746.3
2023-03-12T11:00:34.837Z,1733.5
2023-03-12T11:02:18.471Z,1722.6
2023-03-12T11:04:02.274Z,1722.7
2023-03-12T11:05:45.889Z,1725.6
2023-03-12T11:07:29.582Z,1733.2
2023-03-12T11:09:13.293Z,1733.9
2023-03-12T11:10:57.005Z,1749.2
2023-03-12T11:12:40.784Z,1767.3
2023-03-12T11:14:24.583Z,1772.7
2023-03-12T11:16:08.259Z,1771.9
2023-03-12T11:17:51.929Z,1770.2
2023-03-12T11:19:35.610Z,1792.1
2023-03-12T11:21:19.237Z,1829.6
2023-03-12T11:23:02.913Z,1832
2023-03-12T11:24:46.618Z,1819.9
2023-03-12T11:26:30.319Z,1821.8
2023-03-12T11:28:14.045Z,1822.2
2023-03-12T11:29:57.854Z,1823
2023-03-12T11:31:41.436Z,1824.8
2023-03-12T11:33:25.190Z,1824.6
2023-03-12T11:35:08.833Z,1821.3
2023-03-12T11:36:52.531Z,1826.1
2023-03-12T11:38:36.231Z,1819.7
2023-03-12T11:40:19.990Z,1816.8
2023-03-12T11:42:03.645Z,1809.5
2023-03-12T11:43:47.345Z,1797.8
2023-03-12T11:45:31.080Z,1365
2023-03-12T11:47:14.749Z,1168.9
2023-03-12T11:48:58.472Z,1234.8
2023-03-12T11:50:42.187Z,1620.6
2023-03-12T11:52:25.858Z,1611.3
2023-03-12T11:54:09.561Z,1425
2023-03-12T11:55:53.264Z,1349.3
2023-03-12T11:57:36.959Z,1296.6
2023-03-12T11:59:20.667Z,1075.2
2023-03-12T12:01:04.372Z,907.2
2023-03-12T12:02:48.125Z,793.6
2023-03-12T12:04:31.806Z,639.3
2023-03-12T12:06:15.479Z,624.8
2023-03-12T12:07:59.247Z,749.1
2023-03-12T12:09:42.888Z,935.6
2023-03-12T12:11:26.598Z,999.5
2023-03-12T12:13:10.290Z,888.4
2023-03-12T12:14:53.992Z,869.8
2023-03-12T12:16:37.685Z,893.8
2023-03-12T12:18:21.465Z,931.2
2023-03-12T12:20:05.113Z,947.1
2023-03-12T12:21:48.797Z,948.7
2023-03-12T12:23:32.493Z,956.5
2023-03-12T12:25:16.211Z,977.7
2023-03-12T12:26:59.902Z,1011.9
2023-03-12T12:28:43.609Z,1032.6
2023-03-12T12:30:27.323Z,1078.5
2023-03-12T12:32:11.015Z,1098.4
2023-03-12T12:33:54.724Z,1115.7
2023-03-12T12:35:38.535Z,1147.5
2023-03-12T12:37:22.120Z,1223.9
2023-03-12T12:39:05.844Z,1248
2023-03-12T12:40:49.531Z,1273.7
2023-03-12T12:42:33.231Z,1298.6
2023-03-12T12:44:16.943Z,1322.9
2023-03-12T12:46:00.626Z,1333.3
2023-03-12T12:47:44.408Z,1342.7
2023-03-12T12:49:28.031Z,1346.7
2023-03-12T12:51:11.737Z,1354
2023-03-12T12:52:55.440Z,1361.4
2023-03-12T12:54:39.145Z,1371.7
2023-03-12T12:56:22.854Z,1389.4
2023-03-12T12:58:06.541Z,1392.8
2023-03-12T12:59:50.249Z,1385.2
2023-03-12T13:01:33.954Z,1390.2
2023-03-12T13:03:17.645Z,1399.1
2023-03-12T13:05:01.371Z,1410.3
2023-03-12T13:06:45.076Z,1433.7
2023-03-12T13:08:28.813Z,1434
2023-03-12T13:10:12.477Z,1449.3
2023-03-12T13:11:56.167Z,1460
2023-03-12T13:13:39.871Z,1464.9
2023-03-12T13:15:23.614Z,1483.2
2023-03-12T13:17:07.270Z,1495.7
2023-03-12T13:18:50.977Z,1495.1
2023-03-12T13:20:34.706Z,1495.1
2023-03-12T13:22:18.384Z,1498.3
2023-03-12T13:24:02.113Z,1513.2
2023-03-12T13:25:45.783Z,1523.5
2023-03-12T13:27:29.493Z,1530.7
2023-03-12T13:29:13.200Z,1542.2
2023-03-12T13:30:56.917Z,1561.6
2023-03-12T13:32:40.663Z,1588.8
2023-03-12T13:34:24.317Z,1597.3
2023-03-12T13:36:08.079Z,1608.7
2023-03-12T13:37:51.703Z,1614
2023-03-12T13:39:35.397Z,1618.1
2023-03-12T13:41:19.103Z,1623.5
2023-03-12T13:43:02.825Z,1630
2023-03-12T13:44:46.507Z,1627.4
2023-03-12T13:46:30.215Z,1629.5
2023-03-12T13:48:13.926Z,1649.3
2023-03-12T13:49:57.645Z,1660.3
2023-03-12T13:51:41.328Z,1665.4
2023-03-12T13:53:25.029Z,1662
2023-03-12T13:55:08.733Z,1653.5
2023-03-12T13:56:52.438Z,1663.2
2023-03-12T13:58:36.138Z,1670.1
2023-03-12T14:00:19.864Z,1675.7
2023-03-12T14:02:03.545Z,1681.6
2023-03-12T14:03:47.251Z,1693.8
2023-03-12T14:05:30.980Z,1704.9
2023-03-12T14:07:14.649Z,1706.1
2023-03-12T14:08:58.356Z,1706.5
2023-03-12T14:10:42.055Z,1703.3
2023-03-12T14:12:25.777Z,1710
2023-03-12T14:14:09.461Z,1708
2023-03-12T14:15:53.163Z,1712.6
2023-03-12T14:17:36.858Z,1710.3
2023-03-12T14:19:20.591Z,1708.4
2023-03-12T14:21:04.270Z,1703.4
2023-03-12T14:22:47.967Z,1706.6
2023-03-12T14:24:31.678Z,1695.7
2023-03-12T14:26:15.385Z,1575.5
2023-03-12T14:27:59.079Z,1254.2
2023-03-12T14:29:42.808Z,1099.2
2023-03-12T14:31:26.481Z,1003.9
2023-03-12T14:33:10.186Z,951.8
2023-03-12T14:34:53.885Z,861.3
2023-03-12T14:36:37.614Z,845.1
2023-03-12T14:38:21.323Z,793.8
2023-03-12T14:40:04.997Z,750
2023-03-12T14:41:48.698Z,720.5
2023-03-12T14:43:32.423Z,704.7
2023-03-12T14:45:16.200Z,688.6
2023-03-12T14:46:59.807Z,668.4
2023-03-12T14:48:43.567Z,663
2023-03-12T14:50:27.251Z,642.3
2023-03-12T14:52:10.912Z,611.6
2023-03-12T14:53:54.606Z,595.9
2023-03-12T14:55:38.301Z,585
2023-03-12T14:57:22.016Z,577.9
2023-03-12T14:59:05.719Z,566.9
2023-03-12T15:00:49.440Z,552
2023-03-12T15:02:33.123Z,533.7
2023-03-12T15:04:16.833Z,536.1
2023-03-12T15:06:00.533Z,536.9
2023-03-12T15:07:44.234Z,529.5
2023-03-12T15:09:27.934Z,521.9
2023-03-12T15:11:11.643Z,517.9
2023-03-12T15:12:55.341Z,514.8
2023-03-12T15:14:39.044Z,512.6
2023-03-12T15:16:22.752Z,507.8
2023-03-12T15:18:06.542Z,503
2023-03-12T15:19:50.155Z,500.4
2023-03-12T15:21:33.858Z,497.3
2023-03-12T15:23:17.560Z,494.1
2023-03-12T15:25:01.264Z,492.8
2023-03-12T15:26:44.957Z,485.5
2023-03-12T15:28:28.705Z,480.9
2023-03-12T15:30:12.371Z,472.7
2023-03-12T15:31:56.076Z,471.3
2023-03-12T15:33:39.770Z,471.8
2023-03-12T15:35:23.484Z,470.8
2023-03-12T15:37:07.165Z,460.4
2023-03-12T15:38:50.883Z,453.9
2023-03-12T15:40:34.628Z,451.2
2023-03-12T15:42:18.285Z,449.6
2023-03-12T15:44:02.062Z,454.9
2023-03-12T15:45:45.748Z,469.2
2023-03-12T15:47:29.418Z,522.2
2023-03-12T15:49:13.106Z,536.6
2023-03-12T15:50:56.818Z,561.7
2023-03-12T15:52:40.501Z,574
2023-03-12T15:54:24.214Z,581
2023-03-12T15:56:07.905Z,628.9
2023-03-12T15:57:51.619Z,652.2
2023-03-12T15:59:35.309Z,636.2
2023-03-12T16:01:19.029Z,626.9
2023-03-12T16:03:02.722Z,615.5
2023-03-12T16:04:46.432Z,610.4
2023-03-12T16:06:30.124Z,615.6
2023-03-12T16:08:13.851Z,619.3
2023-03-12T16:09:57.525Z,613.7
2023-03-12T16:11:41.227Z,612.5
2023-03-12T16:13:24.987Z,615
2023-03-12T16:15:08.654Z,619.6
2023-03-12T16:16:52.355Z,620.4
2023-03-12T16:20:19.742Z,619.1
2023-03-12T16:22:03.451Z,621.2
2023-03-12T16:23:47.148Z,625.6
2023-03-12T16:25:30.847Z,625.1
2023-03-12T16:27:14.554Z,626.4
2023-03-12T16:28:58.436Z,627.3
2023-03-12T16:30:42.032Z,631.1
2023-03-12T16:32:25.747Z,635.5
2023-03-12T16:34:09.451Z,639.9
2023-03-12T16:35:53.151Z,645.4
2023-03-12T16:37:36.762Z,645.5
2023-03-12T16:39:20.479Z,657.3
2023-03-12T16:41:04.248Z,666.2
2023-03-12T16:42:47.866Z,666.1
2023-03-12T16:44:31.646Z,669.8
2023-03-12T16:46:15.325Z,675.2
2023-03-12T16:47:58.974Z,682.2
2023-03-12T16:49:42.681Z,684.2
2023-03-12T16:51:26.511Z,690
2023-03-12T16:53:10.080Z,692.4
2023-03-12T16:54:53.785Z,693.6
2023-03-12T16:56:37.481Z,698.3
2023-03-12T16:58:21.272Z,706.9
2023-03-12T17:00:04.961Z,711.8
2023-03-12T17:01:48.606Z,713.8
2023-03-12T17:03:32.294Z,718.5
2023-03-12T17:05:16.000Z,726.3
2023-03-12T17:06:59.729Z,732.4
2023-03-12T17:08:43.405Z,750.5
2023-03-12T17:10:27.104Z,749.4
2023-03-12T17:12:10.808Z,759
2023-03-12T17:13:54.520Z,764.6
2023-03-12T17:15:38.206Z,764.8
2023-03-12T17:17:21.914Z,759.7
2023-03-12T17:19:05.692Z,763.5
2023-03-12T17:20:49.338Z,762.8
2023-03-12T17:22:33.062Z,773.3
2023-03-12T17:24:16.753Z,758.9
2023-03-12T17:26:00.431Z,758.6
2023-03-12T17:27:44.137Z,778.6
2023-03-12T17:29:27.828Z,783.2
2023-03-12T17:31:11.537Z,779.9
2023-03-12T17:32:55.245Z,778.6
2023-03-12T17:34:38.995Z,785.4
2023-03-12T17:36:22.647Z,797.9
2023-03-12T17:38:06.367Z,798.8
2023-03-12T17:39:50.048Z,795.9
2023-03-12T17:41:33.890Z,792.2
2023-03-12T17:43:17.494Z,785.8
2023-03-12T17:45:01.151Z,786.9
2023-03-12T17:46:44.858Z,788.7
2023-03-12T17:48:28.564Z,800
2023-03-12T17:50:12.259Z,799.6
2023-03-12T17:51:56.017Z,808.5
2023-03-12T17:53:39.681Z,824.9
2023-03-12T17:55:23.403Z,844.1
2023-03-12T17:57:07.072Z,850.3
2023-03-12T17:58:50.781Z,854.2
2023-03-12T18:00:34.577Z,865.3
2023-03-12T18:02:18.180Z,876.2
2023-03-12T18:04:01.883Z,879.5
2023-03-12T18:05:45.589Z,881.8
2023-03-12T18:07:29.314Z,883.8
2023-03-12T18:09:12.996Z,879.7
2023-03-12T18:10:56.689Z,878
2023-03-12T18:12:40.405Z,887.1
2023-03-12T18:14:24.159Z,897.6
2023-03-12T18:16:07.798Z,904.9
2023-03-12T18:17:51.646Z,914.3
2023-03-12T18:19:35.239Z,919.3
2023-03-12T18:21:18.907Z,924.1
2023-03-12T18:23:02.622Z,924.6
2023-03-12T18:24:46.314Z,924.9
2023-03-12T18:26:30.056Z,924.8
2023-03-12T18:28:13.714Z,924.5
2023-03-12T18:29:57.409Z,925.4
2023-03-12T18:31:41.118Z,925.1
2023-03-12T18:33:24.848Z,927.1
2023-03-12T18:35:08.520Z,932.9
2023-03-12T18:36:52.239Z,930.2
2023-03-12T18:38:35.965Z,932.4
2023-03-12T18:40:19.637Z,935.1
2023-03-12T18:42:03.411Z,935.7
2023-03-12T18:43:47.041Z,937.9
2023-03-12T18:45:30.793Z,943.5
2023-03-12T18:47:14.446Z,947.5
2023-03-12T18:48:58.150Z,949.7
2023-03-12T18:50:41.850Z,953.9
2023-03-12T18:52:25.557Z,954.5
2023-03-12T18:54:09.263Z,961.4
2023-03-12T18:55:52.969Z,957.1
2023-03-12T18:57:36.713Z,948.5
2023-03-12T18:59:20.379Z,942.5
2023-03-12T19:01:04.071Z,938.2
2023-03-12T19:02:47.770Z,936.7
2023-03-12T19:04:31.592Z,935.4
2023-03-12T19:06:15.179Z,938.7
2023-03-12T19:07:58.875Z,943
2023-03-12T19:09:42.590Z,946.7
2023-03-12T19:11:26.287Z,947.5
2023-03-12T19:13:09.990Z,952
2023-03-12T19:14:53.689Z,967.7
2023-03-12T19:16:37.393Z,986.6
2023-03-12T19:18:21.238Z,1012.9
2023-03-12T19:20:04.848Z,1016.8
2023-03-12T19:21:48.551Z,1013.3
2023-03-12T19:23:32.294Z,1015.4
2023-03-12T19:25:15.913Z,1035
2023-03-12T19:26:59.644Z,1052.8
2023-03-12T19:28:43.316Z,1047.6
2023-03-12T19:30:27.021Z,1053.1
2023-03-12T19:32:10.718Z,1062.7
2023-03-12T19:33:54.544Z,1071.3
2023-03-12T19:35:38.123Z,1079
2023-03-12T19:37:21.817Z,1090.4
2023-03-12T19:39:05.526Z,1098.4
2023-03-12T19:40:49.263Z,1105.2
2023-03-12T19:42:32.923Z,1106.4
2023-03-12T19:44:16.651Z,1105.5
2023-03-12T19:46:00.347Z,1103
2023-03-12T19:47:44.196Z,1105.2
2023-03-12T19:49:27.918Z,1098
2023-03-12T19:51:11.446Z,1092.8
2023-03-12T19:52:55.261Z,1096.4
2023-03-12T19:54:38.896Z,1102.8
2023-03-12T19:56:22.657Z,1123.7
2023-03-12T19:58:06.286Z,1120.7
2023-03-12T19:59:50.139Z,1115.1
2023-03-12T20:01:33.783Z,1115.5
2023-03-12T20:03:17.532Z,1121.2
2023-03-12T20:05:01.145Z,1137.9
2023-03-12T20:06:44.775Z,1152.8
2023-03-12T20:08:28.575Z,1151
2023-03-12T20:10:12.235Z,1159
2023-03-12T20:11:56.014Z,1171.6
2023-03-12T20:13:39.571Z,1184.6
2023-03-12T20:15:23.405Z,1193.7
2023-03-12T20:17:07.129Z,1191.8
2023-03-12T20:18:50.833Z,1189.1
2023-03-12T20:20:34.430Z,1191.2
2023-03-12T20:22:18.097Z,1189.7
2023-03-12T20:24:01.779Z,1187
2023-03-12T20:25:45.631Z,1199.9
2023-03-12T20:27:29.253Z,1205.3
2023-03-12T20:29:12.954Z,1202.7
2023-03-12T20:30:56.625Z,1205.2
2023-03-12T20:32:40.332Z,1210.9
2023-03-12T20:34:24.028Z,1211.8
2023-03-12T20:36:07.751Z,1201.4
2023-03-12T20:37:51.405Z,1197.3
2023-03-12T20:39:35.176Z,1197.7
2023-03-12T20:41:18.826Z,1209.1
2023-03-12T20:43:02.512Z,1227
2023-03-12T20:44:46.372Z,1236.9
2023-03-12T20:46:29.981Z,1242.5
2023-03-12T20:48:13.655Z,1245.5
2023-03-12T20:49:57.440Z,1276.6
2023-03-12T20:51:41.024Z,1286.6
2023-03-12T20:53:24.765Z,1291.5
2023-03-12T20:55:08.426Z,1292.7
2023-03-12T20:56:52.192Z,1293.9
2023-03-12T20:58:35.832Z,1299.9
2023-03-12T21:00:19.541Z,1294.1
2023-03-12T21:02:03.241Z,1304.5
2023-03-12T21:03:47.019Z,1310.4
2023-03-12T21:05:30.645Z,1311.6
2023-03-12T21:07:14.373Z,1317.6
2023-03-12T21:08:58.049Z,1326.8
2023-03-12T21:10:41.752Z,1333.3
2023-03-12T21:12:25.485Z,1332.6
2023-03-12T21:14:09.216Z,1335.3
2023-03-12T21:15:52.857Z,1344.3
2023-03-12T21:17:36.598Z,1355.7
2023-03-12T21:19:20.296Z,1359
2023-03-12T21:21:03.980Z,968.3
2023-03-12T21:22:47.681Z,667.7
2023-03-12T21:24:31.410Z,712.7
2023-03-12T21:26:15.083Z,870.8
2023-03-12T21:27:58.818Z,1083.4
2023-03-12T21:29:42.624Z,939.2
2023-03-12T21:31:26.381Z,911.8
2023-03-12T21:33:10.076Z,913.7
2023-03-12T21:34:53.707Z,915.7
2023-03-12T21:36:37.437Z,970.7
2023-03-12T21:38:21.145Z,1007.2
2023-03-12T21:40:04.695Z,1037.4
2023-03-12T21:41:48.564Z,1037.3
2023-03-12T21:43:32.176Z,1126.2
2023-03-12T21:45:15.805Z,1194.2
2023-03-12T21:46:59.574Z,1195.3
2023-03-12T21:48:43.195Z,1101.7
2023-03-12T21:50:26.947Z,1090
2023-03-12T21:52:10.617Z,1090.4
2023-03-12T21:53:54.475Z,1091
2023-03-12T21:55:38.044Z,1093.5
2023-03-12T21:57:21.729Z,1098.4
2023-03-12T21:59:05.486Z,1100.4
2023-03-12T22:00:49.121Z,1099.2
2023-03-12T22:02:32.975Z,1092.6
2023-03-12T22:04:16.522Z,1090.9
2023-03-12T22:06:00.400Z,1096.4